sensor_id;sensor_type;location;lat;lon;timestamp;temperature;humidity
34201;DHT22;20469;55.638;37.670;2023-02-16T00:02:09;-2.60;92.40
34201;DHT22;20469;55.638;37.670;2023-02-16T00:04:36;-2.70;92.50
34201;DHT22;20469;55.638;37.670;2023-02-16T00:07:04;-2.70;92.50
34201;DHT22;20469;55.638;37.670;2023-02-16T00:09:31;-2.60;95.50
34201;DHT22;20469;55.638;37.670;2023-02-16T00:11:58;-2.60;90.30
34201;DHT22;20469;55.638;37.670;2023-02-16T00:14:44;-2.70;78.70
34201;DHT22;20469;55.638;37.670;2023-02-16T00:17:11;-2.60;83.70
34201;DHT22;20469;55.638;37.670;2023-02-16T00:19:40;-2.50;90.00
34201;DHT22;20469;55.638;37.670;2023-02-16T00:22:08;-2.40;91.60
34201;DHT22;20469;55.638;37.670;2023-02-16T00:24:36;-2.50;87.10
34201;DHT22;20469;55.638;37.670;2023-02-16T00:27:12;-2.60;81.80
34201;DHT22;20469;55.638;37.670;2023-02-16T00:29:41;-2.60;88.80
34201;DHT22;20469;55.638;37.670;2023-02-16T00:32:11;-2.80;84.00
34201;DHT22;20469;55.638;37.670;2023-02-16T00:34:40;-2.70;87.10
34201;DHT22;20469;55.638;37.670;2023-02-16T00:37:09;-2.70;83.80
34201;DHT22;20469;55.638;37.670;2023-02-16T00:39:38;-2.80;80.10
34201;DHT22;20469;55.638;37.670;2023-02-16T00:42:27;-2.90;74.40
34201;DHT22;20469;55.638;37.670;2023-02-16T00:44:56;-2.80;75.00
34201;DHT22;20469;55.638;37.670;2023-02-16T00:49:53;-2.90;65.00
34201;DHT22;20469;55.638;37.670;2023-02-16T00:54:58;-2.60;66.50
34201;DHT22;20469;55.638;37.670;2023-02-16T00:57:29;-2.80;54.90
34201;DHT22;20469;55.638;37.670;2023-02-16T01:00:04;-3.00;47.70
34201;DHT22;20469;55.638;37.670;2023-02-16T01:02:32;-3.10;47.40
34201;DHT22;20469;55.638;37.670;2023-02-16T01:04:59;-2.90;50.70
34201;DHT22;20469;55.638;37.670;2023-02-16T01:07:26;-3.00;44.60
34201;DHT22;20469;55.638;37.670;2023-02-16T01:10:13;-3.00;43.80
34201;DHT22;20469;55.638;37.670;2023-02-16T01:12:59;-2.90;43.80
34201;DHT22;20469;55.638;37.670;2023-02-16T01:15:28;-2.90;40.30
34201;DHT22;20469;55.638;37.670;2023-02-16T01:17:55;-2.50;45.20
34201;DHT22;20469;55.638;37.670;2023-02-16T01:20:24;-2.90;34.00
34201;DHT22;20469;55.638;37.670;2023-02-16T01:22:52;-2.90;36.30
34201;DHT22;20469;55.638;37.670;2023-02-16T01:25:20;-2.90;38.20
34201;DHT22;20469;55.638;37.670;2023-02-16T01:27:47;-3.00;38.60
34201;DHT22;20469;55.638;37.670;2023-02-16T01:30:18;-3.00;41.70
34201;DHT22;20469;55.638;37.670;2023-02-16T01:32:47;-2.90;45.40
34201;DHT22;20469;55.638;37.670;2023-02-16T01:35:28;-2.90;47.90
34201;DHT22;20469;55.638;37.670;2023-02-16T01:37:58;-2.90;52.10
34201;DHT22;20469;55.638;37.670;2023-02-16T01:40:36;-3.00;53.60
34201;DHT22;20469;55.638;37.670;2023-02-16T01:43:23;-3.10;59.40
34201;DHT22;20469;55.638;37.670;2023-02-16T01:46:11;-3.10;63.00
34201;DHT22;20469;55.638;37.670;2023-02-16T01:48:40;-2.90;67.50
34201;DHT22;20469;55.638;37.670;2023-02-16T01:51:50;-3.00;68.20
34201;DHT22;20469;55.638;37.670;2023-02-16T01:55:03;-2.90;77.50
34201;DHT22;20469;55.638;37.670;2023-02-16T01:57:55;-3.00;71.20
34201;DHT22;20469;55.638;37.670;2023-02-16T02:02:09;-3.20;79.00
34201;DHT22;20469;55.638;37.670;2023-02-16T02:03:41;-2.80;94.60
34201;DHT22;20469;55.638;37.670;2023-02-16T02:06:31;-2.80;92.10
34201;DHT22;20469;55.638;37.670;2023-02-16T02:11:43;-3.00;89.60
34201;DHT22;20469;55.638;37.670;2023-02-16T02:14:17;-2.90;90.60
34201;DHT22;20469;55.638;37.670;2023-02-16T02:16:57;-3.10;90.50
34201;DHT22;20469;55.638;37.670;2023-02-16T02:19:25;-2.90;93.30
34201;DHT22;20469;55.638;37.670;2023-02-16T02:27:43;-2.90;91.80
34201;DHT22;20469;55.638;37.670;2023-02-16T02:35:55;-3.00;89.00
34201;DHT22;20469;55.638;37.670;2023-02-16T02:41:13;-2.90;88.70
34201;DHT22;20469;55.638;37.670;2023-02-16T02:43:59;-3.10;89.50
34201;DHT22;20469;55.638;37.670;2023-02-16T02:46:32;-3.20;91.70
34201;DHT22;20469;55.638;37.670;2023-02-16T02:49:01;-3.20;96.10
34201;DHT22;20469;55.638;37.670;2023-02-16T02:51:28;-3.30;99.90
34201;DHT22;20469;55.638;37.670;2023-02-16T02:54:19;-3.20;99.90
34201;DHT22;20469;55.638;37.670;2023-02-16T03:00:23;-3.20;99.90
34201;DHT22;20469;55.638;37.670;2023-02-16T03:03:23;-3.40;99.90
34201;DHT22;20469;55.638;37.670;2023-02-16T03:06:01;-3.40;99.90
34201;DHT22;20469;55.638;37.670;2023-02-16T03:08:31;-3.30;99.90
34201;DHT22;20469;55.638;37.670;2023-02-16T03:11:17;-3.30;99.90
34201;DHT22;20469;55.638;37.670;2023-02-16T03:14:19;-3.50;99.90
34201;DHT22;20469;55.638;37.670;2023-02-16T03:16:59;-3.50;99.90
34201;DHT22;20469;55.638;37.670;2023-02-16T03:19:47;-3.40;99.90
34201;DHT22;20469;55.638;37.670;2023-02-16T03:22:35;-3.40;99.90
34201;DHT22;20469;55.638;37.670;2023-02-16T03:25:24;-3.50;99.90
34201;DHT22;20469;55.638;37.670;2023-02-16T03:28:12;-4.40;99.90
34201;DHT22;20469;55.638;37.670;2023-02-16T03:30:59;-3.40;99.90
34201;DHT22;20469;55.638;37.670;2023-02-16T03:33:28;-3.30;99.90
34201;DHT22;20469;55.638;37.670;2023-02-16T03:35:57;-3.00;99.90
34201;DHT22;20469;55.638;37.670;2023-02-16T03:38:25;-3.20;99.90
34201;DHT22;20469;55.638;37.670;2023-02-16T03:40:53;-3.40;99.90
34201;DHT22;20469;55.638;37.670;2023-02-16T03:43:24;-3.30;99.90
34201;DHT22;20469;55.638;37.670;2023-02-16T03:45:52;-3.30;99.90
34201;DHT22;20469;55.638;37.670;2023-02-16T03:48:21;-3.10;99.90
34201;DHT22;20469;55.638;37.670;2023-02-16T03:50:48;-3.20;99.90
34201;DHT22;20469;55.638;37.670;2023-02-16T03:53:16;-3.20;99.90
34201;DHT22;20469;55.638;37.670;2023-02-16T03:55:46;-3.10;99.90
34201;DHT22;20469;55.638;37.670;2023-02-16T03:58:19;-3.20;99.90
34201;DHT22;20469;55.638;37.670;2023-02-16T04:00:46;-3.10;99.90
34201;DHT22;20469;55.638;37.670;2023-02-16T04:03:14;-3.00;99.90
34201;DHT22;20469;55.638;37.670;2023-02-16T04:05:43;-3.00;99.90
34201;DHT22;20469;55.638;37.670;2023-02-16T04:08:10;-1.80;99.90
34201;DHT22;20469;55.638;37.670;2023-02-16T04:10:38;-3.00;99.90
34201;DHT22;20469;55.638;37.670;2023-02-16T04:13:06;-3.00;99.90
34201;DHT22;20469;55.638;37.670;2023-02-16T04:15:34;-3.10;99.90
34201;DHT22;20469;55.638;37.670;2023-02-16T04:18:01;-2.80;99.90
34201;DHT22;20469;55.638;37.670;2023-02-16T04:20:32;-3.10;99.90
34201;DHT22;20469;55.638;37.670;2023-02-16T04:23:01;-3.20;99.90
34201;DHT22;20469;55.638;37.670;2023-02-16T04:25:29;-3.00;99.90
34201;DHT22;20469;55.638;37.670;2023-02-16T04:27:56;-3.10;99.90
34201;DHT22;20469;55.638;37.670;2023-02-16T04:30:26;-3.00;99.90
34201;DHT22;20469;55.638;37.670;2023-02-16T04:32:54;-3.00;99.90
34201;DHT22;20469;55.638;37.670;2023-02-16T04:35:22;-3.10;99.90
34201;DHT22;20469;55.638;37.670;2023-02-16T04:37:49;-3.10;99.90
34201;DHT22;20469;55.638;37.670;2023-02-16T04:40:17;-3.20;99.90
34201;DHT22;20469;55.638;37.670;2023-02-16T04:42:45;-3.00;99.90
34201;DHT22;20469;55.638;37.670;2023-02-16T04:45:13;-3.40;99.90
34201;DHT22;20469;55.638;37.670;2023-02-16T04:47:40;-3.30;99.90
34201;DHT22;20469;55.638;37.670;2023-02-16T04:50:08;-3.10;99.90
34201;DHT22;20469;55.638;37.670;2023-02-16T04:52:36;-3.00;99.90
34201;DHT22;20469;55.638;37.670;2023-02-16T04:55:05;-3.00;99.90
34201;DHT22;20469;55.638;37.670;2023-02-16T04:57:38;-3.10;99.90
34201;DHT22;20469;55.638;37.670;2023-02-16T05:00:08;-3.00;99.90
34201;DHT22;20469;55.638;37.670;2023-02-16T05:02:37;-3.00;99.90
34201;DHT22;20469;55.638;37.670;2023-02-16T05:05:04;-3.00;99.90
34201;DHT22;20469;55.638;37.670;2023-02-16T05:07:35;-3.10;99.90
34201;DHT22;20469;55.638;37.670;2023-02-16T05:10:03;-3.30;99.90
34201;DHT22;20469;55.638;37.670;2023-02-16T05:12:30;-3.40;99.90
34201;DHT22;20469;55.638;37.670;2023-02-16T05:15:16;-3.30;99.90
34201;DHT22;20469;55.638;37.670;2023-02-16T05:17:43;-3.30;99.90
34201;DHT22;20469;55.638;37.670;2023-02-16T05:20:11;-3.10;99.90
34201;DHT22;20469;55.638;37.670;2023-02-16T05:22:38;-3.10;99.90
34201;DHT22;20469;55.638;37.670;2023-02-16T05:25:06;-2.80;99.90
34201;DHT22;20469;55.638;37.670;2023-02-16T05:27:33;-2.70;99.90
34201;DHT22;20469;55.638;37.670;2023-02-16T05:30:01;-3.10;99.90
34201;DHT22;20469;55.638;37.670;2023-02-16T05:32:30;-3.20;99.90
34201;DHT22;20469;55.638;37.670;2023-02-16T05:34:57;-3.30;99.90
34201;DHT22;20469;55.638;37.670;2023-02-16T05:37:24;-3.30;99.90
34201;DHT22;20469;55.638;37.670;2023-02-16T05:39:51;-3.10;99.90
34201;DHT22;20469;55.638;37.670;2023-02-16T05:42:19;-3.00;99.90
34201;DHT22;20469;55.638;37.670;2023-02-16T05:44:46;-3.10;99.90
34201;DHT22;20469;55.638;37.670;2023-02-16T05:47:14;-3.10;99.90
34201;DHT22;20469;55.638;37.670;2023-02-16T05:49:41;-3.20;99.90
34201;DHT22;20469;55.638;37.670;2023-02-16T05:52:09;-3.30;99.90
34201;DHT22;20469;55.638;37.670;2023-02-16T05:54:37;-3.20;99.90
34201;DHT22;20469;55.638;37.670;2023-02-16T05:57:04;-3.30;99.90
34201;DHT22;20469;55.638;37.670;2023-02-16T05:59:31;-3.10;99.90
34201;DHT22;20469;55.638;37.670;2023-02-16T06:01:58;-3.00;99.90
34201;DHT22;20469;55.638;37.670;2023-02-16T06:04:26;-2.90;99.90
34201;DHT22;20469;55.638;37.670;2023-02-16T06:06:54;-2.90;99.90
34201;DHT22;20469;55.638;37.670;2023-02-16T06:09:21;-3.00;99.90
34201;DHT22;20469;55.638;37.670;2023-02-16T06:11:48;-3.30;99.90
34201;DHT22;20469;55.638;37.670;2023-02-16T06:14:18;-3.40;99.90
34201;DHT22;20469;55.638;37.670;2023-02-16T06:16:47;-3.30;99.90
34201;DHT22;20469;55.638;37.670;2023-02-16T06:19:17;-3.30;99.90
34201;DHT22;20469;55.638;37.670;2023-02-16T06:21:45;-3.10;99.90
34201;DHT22;20469;55.638;37.670;2023-02-16T06:24:13;-3.10;99.90
34201;DHT22;20469;55.638;37.670;2023-02-16T06:26:41;-3.10;99.90
34201;DHT22;20469;55.638;37.670;2023-02-16T06:29:09;-3.20;99.90
34201;DHT22;20469;55.638;37.670;2023-02-16T06:31:36;-3.00;99.90
34201;DHT22;20469;55.638;37.670;2023-02-16T06:34:04;-3.20;99.90
34201;DHT22;20469;55.638;37.670;2023-02-16T06:36:32;-3.00;99.90
34201;DHT22;20469;55.638;37.670;2023-02-16T06:39:00;-3.00;99.90
34201;DHT22;20469;55.638;37.670;2023-02-16T06:41:27;-3.00;99.90
34201;DHT22;20469;55.638;37.670;2023-02-16T06:44:08;-3.10;99.90
34201;DHT22;20469;55.638;37.670;2023-02-16T06:46:42;-3.10;99.90
34201;DHT22;20469;55.638;37.670;2023-02-16T06:49:17;-3.00;99.90
34201;DHT22;20469;55.638;37.670;2023-02-16T06:51:45;-2.90;99.90
34201;DHT22;20469;55.638;37.670;2023-02-16T06:54:13;-3.00;99.90
34201;DHT22;20469;55.638;37.670;2023-02-16T06:56:41;-2.80;99.90
34201;DHT22;20469;55.638;37.670;2023-02-16T06:59:10;-2.90;99.90
34201;DHT22;20469;55.638;37.670;2023-02-16T07:01:37;-2.90;99.90
34201;DHT22;20469;55.638;37.670;2023-02-16T07:04:04;-3.10;99.90
34201;DHT22;20469;55.638;37.670;2023-02-16T07:06:32;-2.80;99.90
34201;DHT22;20469;55.638;37.670;2023-02-16T07:09:00;-3.00;99.90
34201;DHT22;20469;55.638;37.670;2023-02-16T07:11:27;-2.60;99.90
34201;DHT22;20469;55.638;37.670;2023-02-16T07:13:55;-2.60;99.90
34201;DHT22;20469;55.638;37.670;2023-02-16T07:16:22;-2.70;99.90
34201;DHT22;20469;55.638;37.670;2023-02-16T07:18:50;-2.50;99.90
34201;DHT22;20469;55.638;37.670;2023-02-16T07:21:17;-2.30;99.90
34201;DHT22;20469;55.638;37.670;2023-02-16T07:23:45;-2.20;99.90
34201;DHT22;20469;55.638;37.670;2023-02-16T07:26:13;-2.40;91.10
34201;DHT22;20469;55.638;37.670;2023-02-16T07:28:40;-2.70;82.40
34201;DHT22;20469;55.638;37.670;2023-02-16T07:31:10;-2.60;84.00
34201;DHT22;20469;55.638;37.670;2023-02-16T07:33:38;-2.90;87.90
34201;DHT22;20469;55.638;37.670;2023-02-16T07:36:07;-2.50;93.80
34201;DHT22;20469;55.638;37.670;2023-02-16T07:38:34;-2.40;91.30
34201;DHT22;20469;55.638;37.670;2023-02-16T07:41:02;-2.50;81.40
34201;DHT22;20469;55.638;37.670;2023-02-16T07:43:36;-2.40;71.70
34201;DHT22;20469;55.638;37.670;2023-02-16T07:46:03;-2.90;62.00
34201;DHT22;20469;55.638;37.670;2023-02-16T07:48:31;-2.50;76.20
34201;DHT22;20469;55.638;37.670;2023-02-16T07:50:59;-2.80;57.90
34201;DHT22;20469;55.638;37.670;2023-02-16T07:53:27;-2.80;57.10
34201;DHT22;20469;55.638;37.670;2023-02-16T07:55:54;-2.80;59.70
34201;DHT22;20469;55.638;37.670;2023-02-16T07:58:22;-2.50;65.60
34201;DHT22;20469;55.638;37.670;2023-02-16T08:00:56;-2.50;63.10
34201;DHT22;20469;55.638;37.670;2023-02-16T08:03:24;-2.30;62.60
34201;DHT22;20469;55.638;37.670;2023-02-16T08:05:51;-2.20;55.10
34201;DHT22;20469;55.638;37.670;2023-02-16T08:08:18;-1.90;56.60
34201;DHT22;20469;55.638;37.670;2023-02-16T08:10:46;-1.70;50.70
34201;DHT22;20469;55.638;37.670;2023-02-16T08:13:13;-1.90;37.80
34201;DHT22;20469;55.638;37.670;2023-02-16T08:15:44;-2.20;28.10
34201;DHT22;20469;55.638;37.670;2023-02-16T08:18:12;-2.30;28.10
34201;DHT22;20469;55.638;37.670;2023-02-16T08:20:39;-2.30;24.70
34201;DHT22;20469;55.638;37.670;2023-02-16T08:23:26;-2.30;23.90
34201;DHT22;20469;55.638;37.670;2023-02-16T08:25:53;-2.50;25.00
34201;DHT22;20469;55.638;37.670;2023-02-16T08:28:24;-2.50;25.90
34201;DHT22;20469;55.638;37.670;2023-02-16T08:30:54;-2.10;26.70
34201;DHT22;20469;55.638;37.670;2023-02-16T08:33:22;-2.40;18.90
34201;DHT22;20469;55.638;37.670;2023-02-16T08:35:50;-2.20;23.00
34201;DHT22;20469;55.638;37.670;2023-02-16T08:38:17;-2.10;22.80
34201;DHT22;20469;55.638;37.670;2023-02-16T08:40:50;-2.00;20.90
34201;DHT22;20469;55.638;37.670;2023-02-16T08:43:17;-2.20;17.70
34201;DHT22;20469;55.638;37.670;2023-02-16T08:45:48;-2.60;15.10
34201;DHT22;20469;55.638;37.670;2023-02-16T08:48:15;-2.00;23.50
34201;DHT22;20469;55.638;37.670;2023-02-16T08:50:44;-1.80;19.60
34201;DHT22;20469;55.638;37.670;2023-02-16T08:53:21;-2.30;14.90
34201;DHT22;20469;55.638;37.670;2023-02-16T08:55:59;-2.20;13.80
34201;DHT22;20469;55.638;37.670;2023-02-16T08:58:26;-2.30;10.60
34201;DHT22;20469;55.638;37.670;2023-02-16T09:00:54;-2.40;10.10
34201;DHT22;20469;55.638;37.670;2023-02-16T09:03:24;-2.20;11.50
34201;DHT22;20469;55.638;37.670;2023-02-16T09:05:52;-2.30;8.20
34201;DHT22;20469;55.638;37.670;2023-02-16T09:08:19;-1.80;8.70
34201;DHT22;20469;55.638;37.670;2023-02-16T09:10:47;-1.90;5.30
34201;DHT22;20469;55.638;37.670;2023-02-16T09:13:14;-1.50;3.80
34201;DHT22;20469;55.638;37.670;2023-02-16T09:15:45;-1.60;1.00
34201;DHT22;20469;55.638;37.670;2023-02-16T09:18:13;-1.50;1.00
34201;DHT22;20469;55.638;37.670;2023-02-16T09:20:42;-1.50;1.00
34201;DHT22;20469;55.638;37.670;2023-02-16T09:23:12;-1.20;1.00
34201;DHT22;20469;55.638;37.670;2023-02-16T09:25:40;-1.70;1.00
34201;DHT22;20469;55.638;37.670;2023-02-16T09:28:10;-0.90;1.00
34201;DHT22;20469;55.638;37.670;2023-02-16T09:30:37;-0.90;1.00
34201;DHT22;20469;55.638;37.670;2023-02-16T09:33:05;-1.00;1.00
34201;DHT22;20469;55.638;37.670;2023-02-16T09:35:33;-1.70;1.00
34201;DHT22;20469;55.638;37.670;2023-02-16T09:38:00;-1.60;1.00
34201;DHT22;20469;55.638;37.670;2023-02-16T09:40:28;-1.40;1.00
34201;DHT22;20469;55.638;37.670;2023-02-16T09:45:31;-1.00;1.00
34201;DHT22;20469;55.638;37.670;2023-02-16T09:48:13;-1.30;1.00
34201;DHT22;20469;55.638;37.670;2023-02-16T09:50:43;-1.40;1.00
34201;DHT22;20469;55.638;37.670;2023-02-16T09:53:37;-1.80;1.00
34201;DHT22;20469;55.638;37.670;2023-02-16T10:02:00;-1.70;1.00
34201;DHT22;20469;55.638;37.670;2023-02-16T10:09:56;-1.90;1.00
34201;DHT22;20469;55.638;37.670;2023-02-16T10:12:32;-1.60;1.00
34201;DHT22;20469;55.638;37.670;2023-02-16T10:15:09;-1.60;1.00
34201;DHT22;20469;55.638;37.670;2023-02-16T10:17:47;-1.40;1.00
34201;DHT22;20469;55.638;37.670;2023-02-16T10:25:53;-1.70;1.00
34201;DHT22;20469;55.638;37.670;2023-02-16T10:43:11;-1.90;1.00
34201;DHT22;20469;55.638;37.670;2023-02-16T10:45:51;-1.90;1.00
34201;DHT22;20469;55.638;37.670;2023-02-16T10:48:20;-1.90;1.00
34201;DHT22;20469;55.638;37.670;2023-02-16T10:51:09;-1.80;1.00
34201;DHT22;20469;55.638;37.670;2023-02-16T10:54:17;-1.80;1.00
34201;DHT22;20469;55.638;37.670;2023-02-16T10:56:48;-1.80;1.00
34201;DHT22;20469;55.638;37.670;2023-02-16T10:59:27;-2.00;1.00
34201;DHT22;20469;55.638;37.670;2023-02-16T11:01:59;-1.80;1.00
34201;DHT22;20469;55.638;37.670;2023-02-16T11:04:42;-1.50;1.00
34201;DHT22;20469;55.638;37.670;2023-02-16T11:07:14;-1.20;1.00
34201;DHT22;20469;55.638;37.670;2023-02-16T11:09:45;-1.30;1.00
34201;DHT22;20469;55.638;37.670;2023-02-16T11:14:57;-1.70;1.00
34201;DHT22;20469;55.638;37.670;2023-02-16T11:17:26;-1.80;1.00
34201;DHT22;20469;55.638;37.670;2023-02-16T11:20:07;-1.40;1.00
34201;DHT22;20469;55.638;37.670;2023-02-16T11:22:37;-1.20;1.00
34201;DHT22;20469;55.638;37.670;2023-02-16T11:25:21;-1.40;1.00
34201;DHT22;20469;55.638;37.670;2023-02-16T11:28:00;-1.50;1.00
34201;DHT22;20469;55.638;37.670;2023-02-16T11:30:34;-1.50;1.00
34201;DHT22;20469;55.638;37.670;2023-02-16T11:33:04;-1.60;1.00
34201;DHT22;20469;55.638;37.670;2023-02-16T11:35:48;-1.60;1.00
34201;DHT22;20469;55.638;37.670;2023-02-16T11:38:35;-2.00;1.00
34201;DHT22;20469;55.638;37.670;2023-02-16T11:41:06;-2.00;1.00
34201;DHT22;20469;55.638;37.670;2023-02-16T11:43:37;-2.00;1.00
34201;DHT22;20469;55.638;37.670;2023-02-16T11:46:13;-1.90;1.00
34201;DHT22;20469;55.638;37.670;2023-02-16T11:48:42;-1.90;1.00
34201;DHT22;20469;55.638;37.670;2023-02-16T11:51:11;-1.90;1.00
34201;DHT22;20469;55.638;37.670;2023-02-16T11:53:42;-2.00;1.00
34201;DHT22;20469;55.638;37.670;2023-02-16T11:56:29;-2.10;1.00
34201;DHT22;20469;55.638;37.670;2023-02-16T11:59:17;-2.10;1.00
34201;DHT22;20469;55.638;37.670;2023-02-16T12:04:52;-2.00;1.00
34201;DHT22;20469;55.638;37.670;2023-02-16T12:07:49;-2.10;1.00
34201;DHT22;20469;55.638;37.670;2023-02-16T12:10:50;-2.10;1.00
34201;DHT22;20469;55.638;37.670;2023-02-16T12:26:35;-2.00;1.00
34201;DHT22;20469;55.638;37.670;2023-02-16T12:35:28;-2.20;1.00
34201;DHT22;20469;55.638;37.670;2023-02-16T12:40:45;-2.30;1.00
34201;DHT22;20469;55.638;37.670;2023-02-16T12:43:33;-2.30;1.00
34201;DHT22;20469;55.638;37.670;2023-02-16T12:46:10;-2.30;1.00
34201;DHT22;20469;55.638;37.670;2023-02-16T12:48:41;-2.40;1.00
34201;DHT22;20469;55.638;37.670;2023-02-16T12:51:17;-2.30;1.00
34201;DHT22;20469;55.638;37.670;2023-02-16T12:56:23;-2.30;1.00
34201;DHT22;20469;55.638;37.670;2023-02-16T12:58:59;-2.20;1.00
34201;DHT22;20469;55.638;37.670;2023-02-16T13:01:31;-2.10;1.00
34201;DHT22;20469;55.638;37.670;2023-02-16T13:04:12;-2.20;1.00
34201;DHT22;20469;55.638;37.670;2023-02-16T13:09:20;-2.10;1.00
34201;DHT22;20469;55.638;37.670;2023-02-16T13:12:07;-2.40;1.00
34201;DHT22;20469;55.638;37.670;2023-02-16T13:14:43;-2.30;1.00
34201;DHT22;20469;55.638;37.670;2023-02-16T13:17:23;-2.00;1.00
34201;DHT22;20469;55.638;37.670;2023-02-16T13:19:52;-1.90;1.00
34201;DHT22;20469;55.638;37.670;2023-02-16T13:31:53;-2.40;1.00
34201;DHT22;20469;55.638;37.670;2023-02-16T13:34:39;-2.50;1.00
34201;DHT22;20469;55.638;37.670;2023-02-16T13:45:44;-2.10;1.00
34201;DHT22;20469;55.638;37.670;2023-02-16T13:48:20;-2.40;1.00
34201;DHT22;20469;55.638;37.670;2023-02-16T13:51:06;-2.30;1.00
34201;DHT22;20469;55.638;37.670;2023-02-16T13:53:41;-2.10;1.00
34201;DHT22;20469;55.638;37.670;2023-02-16T13:58:50;-2.10;1.00
34201;DHT22;20469;55.638;37.670;2023-02-16T14:03:59;-2.30;1.00
34201;DHT22;20469;55.638;37.670;2023-02-16T14:06:33;-2.50;1.00
34201;DHT22;20469;55.638;37.670;2023-02-16T14:14:54;-2.50;1.00
34201;DHT22;20469;55.638;37.670;2023-02-16T14:17:26;-2.70;1.00
34201;DHT22;20469;55.638;37.670;2023-02-16T14:22:49;-2.30;1.00
34201;DHT22;20469;55.638;37.670;2023-02-16T14:33:18;-2.70;1.00
34201;DHT22;20469;55.638;37.670;2023-02-16T14:38:36;-2.70;1.00
34201;DHT22;20469;55.638;37.670;2023-02-16T14:41:31;-2.80;1.00
34201;DHT22;20469;55.638;37.670;2023-02-16T14:49:51;-3.10;1.00
34201;DHT22;20469;55.638;37.670;2023-02-16T15:03:40;-2.80;1.00
34201;DHT22;20469;55.638;37.670;2023-02-16T15:06:33;-3.00;1.00
34201;DHT22;20469;55.638;37.670;2023-02-16T15:09:03;-3.10;1.00
34201;DHT22;20469;55.638;37.670;2023-02-16T15:11:37;-3.10;1.00
34201;DHT22;20469;55.638;37.670;2023-02-16T15:14:27;-3.30;1.00
34201;DHT22;20469;55.638;37.670;2023-02-16T15:16:57;-3.40;1.00
34201;DHT22;20469;55.638;37.670;2023-02-16T15:19:28;-3.50;1.00
34201;DHT22;20469;55.638;37.670;2023-02-16T15:22:17;-3.50;1.00
34201;DHT22;20469;55.638;37.670;2023-02-16T15:24:55;-3.60;1.00
34201;DHT22;20469;55.638;37.670;2023-02-16T15:27:23;-3.70;1.00
34201;DHT22;20469;55.638;37.670;2023-02-16T15:30:14;-3.70;1.00
34201;DHT22;20469;55.638;37.670;2023-02-16T15:32:55;-3.70;1.00
34201;DHT22;20469;55.638;37.670;2023-02-16T15:35:28;-3.70;1.00
34201;DHT22;20469;55.638;37.670;2023-02-16T15:38:08;-3.80;1.00
34201;DHT22;20469;55.638;37.670;2023-02-16T15:40:45;-3.50;1.00
34201;DHT22;20469;55.638;37.670;2023-02-16T15:43:24;-3.50;1.00
34201;DHT22;20469;55.638;37.670;2023-02-16T15:45:53;-3.70;1.00
34201;DHT22;20469;55.638;37.670;2023-02-16T15:48:31;-3.80;1.00
34201;DHT22;20469;55.638;37.670;2023-02-16T15:51:21;-3.90;1.00
34201;DHT22;20469;55.638;37.670;2023-02-16T15:56:46;-3.70;1.00
34201;DHT22;20469;55.638;37.670;2023-02-16T15:59:34;-3.90;1.00
34201;DHT22;20469;55.638;37.670;2023-02-16T16:02:12;-4.00;1.00
34201;DHT22;20469;55.638;37.670;2023-02-16T16:04:46;-4.00;1.00
34201;DHT22;20469;55.638;37.670;2023-02-16T16:07:32;-4.10;1.00
34201;DHT22;20469;55.638;37.670;2023-02-16T16:10:15;-4.20;1.00
34201;DHT22;20469;55.638;37.670;2023-02-16T16:12:48;-4.00;1.00
34201;DHT22;20469;55.638;37.670;2023-02-16T16:15:23;-4.10;1.00
34201;DHT22;20469;55.638;37.670;2023-02-16T16:17:53;-4.20;1.00
34201;DHT22;20469;55.638;37.670;2023-02-16T16:25:41;-4.20;1.00
34201;DHT22;20469;55.638;37.670;2023-02-16T16:34:00;-4.10;1.00
34201;DHT22;20469;55.638;37.670;2023-02-16T16:36:31;-4.20;1.00
34201;DHT22;20469;55.638;37.670;2023-02-16T16:39:23;-4.30;1.00
34201;DHT22;20469;55.638;37.670;2023-02-16T16:44:35;-4.40;1.00
34201;DHT22;20469;55.638;37.670;2023-02-16T16:47:24;-3.30;1.00
34201;DHT22;20469;55.638;37.670;2023-02-16T16:52:45;-4.70;1.00
34201;DHT22;20469;55.638;37.670;2023-02-16T16:55:23;-4.60;1.00
34201;DHT22;20469;55.638;37.670;2023-02-16T16:57:57;-4.50;1.00
34201;DHT22;20469;55.638;37.670;2023-02-16T17:00:32;-4.50;1.00
34201;DHT22;20469;55.638;37.670;2023-02-16T17:03:01;-4.60;1.00
34201;DHT22;20469;55.638;37.670;2023-02-16T17:05:29;-4.40;1.00
34201;DHT22;20469;55.638;37.670;2023-02-16T17:07:56;-4.40;1.00
34201;DHT22;20469;55.638;37.670;2023-02-16T17:10:24;-4.40;1.00
34201;DHT22;20469;55.638;37.670;2023-02-16T17:12:56;-4.40;1.00
34201;DHT22;20469;55.638;37.670;2023-02-16T17:17:51;-4.60;1.00
34201;DHT22;20469;55.638;37.670;2023-02-16T17:20:19;-4.70;1.00
34201;DHT22;20469;55.638;37.670;2023-02-16T17:22:47;-4.80;1.00
34201;DHT22;20469;55.638;37.670;2023-02-16T17:25:14;-5.20;1.00
34201;DHT22;20469;55.638;37.670;2023-02-16T17:27:42;-5.10;1.00
34201;DHT22;20469;55.638;37.670;2023-02-16T17:30:10;-5.20;1.00
34201;DHT22;20469;55.638;37.670;2023-02-16T17:32:38;-5.20;1.00
34201;DHT22;20469;55.638;37.670;2023-02-16T17:35:06;-5.30;1.00
34201;DHT22;20469;55.638;37.670;2023-02-16T17:37:33;-5.40;1.00
34201;DHT22;20469;55.638;37.670;2023-02-16T17:40:10;-5.40;1.00
34201;DHT22;20469;55.638;37.670;2023-02-16T17:42:41;-5.60;1.00
34201;DHT22;20469;55.638;37.670;2023-02-16T17:45:09;-5.60;1.00
34201;DHT22;20469;55.638;37.670;2023-02-16T17:47:36;-5.70;1.00
34201;DHT22;20469;55.638;37.670;2023-02-16T17:50:04;-5.80;1.00
34201;DHT22;20469;55.638;37.670;2023-02-16T17:52:32;-5.50;1.00
34201;DHT22;20469;55.638;37.670;2023-02-16T17:55:00;-5.50;1.00
34201;DHT22;20469;55.638;37.670;2023-02-16T17:57:27;-5.70;1.00
34201;DHT22;20469;55.638;37.670;2023-02-16T17:59:55;-5.80;1.00
34201;DHT22;20469;55.638;37.670;2023-02-16T18:02:23;-5.90;1.00
34201;DHT22;20469;55.638;37.670;2023-02-16T18:04:50;-5.90;1.00
34201;DHT22;20469;55.638;37.670;2023-02-16T18:07:18;-5.90;1.00
34201;DHT22;20469;55.638;37.670;2023-02-16T18:09:48;-5.90;1.00
34201;DHT22;20469;55.638;37.670;2023-02-16T18:12:15;-6.00;1.00
34201;DHT22;20469;55.638;37.670;2023-02-16T18:14:43;-6.00;1.00
34201;DHT22;20469;55.638;37.670;2023-02-16T18:17:13;-6.00;1.00
34201;DHT22;20469;55.638;37.670;2023-02-16T18:19:40;-6.00;1.00
34201;DHT22;20469;55.638;37.670;2023-02-16T18:22:08;-6.00;1.00
34201;DHT22;20469;55.638;37.670;2023-02-16T18:24:35;-5.80;1.00
34201;DHT22;20469;55.638;37.670;2023-02-16T18:27:03;-5.90;1.00
34201;DHT22;20469;55.638;37.670;2023-02-16T18:29:30;-5.80;1.00
34201;DHT22;20469;55.638;37.670;2023-02-16T18:31:58;-6.00;1.00
34201;DHT22;20469;55.638;37.670;2023-02-16T18:34:25;-6.00;1.00
34201;DHT22;20469;55.638;37.670;2023-02-16T18:39:21;-6.00;1.00
34201;DHT22;20469;55.638;37.670;2023-02-16T18:41:48;-5.90;1.00
34201;DHT22;20469;55.638;37.670;2023-02-16T18:44:15;-5.90;1.00
34201;DHT22;20469;55.638;37.670;2023-02-16T18:46:43;-5.90;1.00
34201;DHT22;20469;55.638;37.670;2023-02-16T18:49:10;-5.90;1.00
34201;DHT22;20469;55.638;37.670;2023-02-16T18:51:37;-5.90;1.00
34201;DHT22;20469;55.638;37.670;2023-02-16T18:54:05;-5.90;1.00